createdAt,value
2018-11-05T00:05:03.000Z,18.87
2018-11-05T00:15:03.000Z,18.85
2018-11-05T00:25:03.000Z,18.84
2018-11-05T00:35:03.000Z,18.82
2018-11-05T00:45:03.000Z,18.79
2018-11-05T00:55:03.000Z,18.77
2018-11-05T01:05:03.000Z,18.74
2018-11-05T01:15:03.000Z,18.72
2018-11-05T01:25:03.000Z,18.68
2018-11-05T01:35:03.000Z,18.66
2018-11-05T01:45:04.000Z,18.65
2018-11-05T01:55:03.000Z,18.63
2018-11-05T02:05:03.000Z,18.62
2018-11-05T02:15:04.000Z,18.59
2018-11-05T02:25:03.000Z,18.57
2018-11-05T02:35:03.000Z,18.57
2018-11-05T02:55:04.000Z,18.52
2018-11-05T03:05:04.000Z,18.5
2018-11-05T03:15:04.000Z,18.49
2018-11-05T03:25:04.000Z,18.47
2018-11-05T03:45:04.000Z,18.46
2018-11-05T03:55:05.000Z,18.47
2018-11-05T04:05:04.000Z,18.44
2018-11-05T04:15:04.000Z,18.43
2018-11-05T04:25:04.000Z,18.41
2018-11-05T04:35:04.000Z,18.4
2018-11-05T04:45:04.000Z,18.39
2018-11-05T04:55:04.000Z,18.38
2018-11-05T05:05:04.000Z,18.36
2018-11-05T05:15:04.000Z,18.36
2018-11-05T05:25:04.000Z,18.35
2018-11-05T05:35:04.000Z,18.34
2018-11-05T05:45:08.000Z,18.33
2018-11-05T05:55:04.000Z,18.32
2018-11-05T06:05:04.000Z,18.34
2018-11-05T06:15:04.000Z,18.31
2018-11-05T06:25:04.000Z,18.35
2018-11-05T06:35:04.000Z,18.32
2018-11-05T06:45:04.000Z,18.33
2018-11-05T06:55:04.000Z,18.33
2018-11-05T07:05:05.000Z,18.33
2018-11-05T07:15:05.000Z,18.33
2018-11-05T07:25:04.000Z,18.34
2018-11-05T07:35:04.000Z,18.34
2018-11-05T07:45:05.000Z,18.37
2018-11-05T07:55:04.000Z,18.39
2018-11-05T08:05:05.000Z,18.4
2018-11-05T08:15:04.000Z,18.42
2018-11-05T08:25:06.000Z,18.46
2018-11-05T08:35:05.000Z,18.5
2018-11-05T08:45:04.000Z,18.57
2018-11-05T08:55:06.000Z,18.61
2018-11-05T09:05:04.000Z,18.64
2018-11-05T09:15:04.000Z,18.68
2018-11-05T09:25:06.000Z,18.73
2018-11-05T09:35:04.000Z,18.72
2018-11-05T09:45:04.000Z,18.76
2018-11-05T09:55:04.000Z,18.8
2018-11-05T10:05:05.000Z,18.82
2018-11-05T10:15:04.000Z,18.84
2018-11-05T10:25:04.000Z,18.86
2018-11-05T10:35:04.000Z,18.91
2018-11-05T10:45:04.000Z,18.92
2018-11-05T10:55:04.000Z,18.96
2018-11-05T11:05:04.000Z,18.94
2018-11-05T11:15:04.000Z,19
2018-11-05T11:25:07.000Z,19.02
2018-11-05T11:35:05.000Z,19.08
2018-11-05T11:45:05.000Z,19.1
2018-11-05T11:55:05.000Z,19.14
2018-11-05T12:05:05.000Z,19.16
2018-11-05T12:15:06.000Z,19.21
2018-11-05T12:25:05.000Z,19.27
2018-11-05T12:35:14.000Z,19.34
2018-11-05T12:45:14.000Z,19.35
2018-11-05T12:55:15.000Z,19.36
2018-11-05T13:05:14.000Z,19.4
2018-11-05T13:15:14.000Z,19.43
2018-11-05T13:25:14.000Z,19.45
2018-11-05T13:35:14.000Z,19.48
2018-11-05T13:45:14.000Z,19.47
2018-11-05T13:55:15.000Z,19.5
2018-11-05T14:25:14.000Z,19.52
2018-11-05T14:35:14.000Z,19.51
2018-11-05T14:45:14.000Z,19.56
2018-11-05T14:55:14.000Z,19.52
2018-11-05T15:05:14.000Z,19.47
2018-11-05T15:15:16.000Z,19.43
2018-11-05T15:25:14.000Z,19.48
2018-11-05T15:35:14.000Z,19.47
2018-11-05T15:45:14.000Z,19.43
2018-11-05T15:55:14.000Z,19.41
2018-11-05T16:05:14.000Z,19.39
2018-11-05T16:15:14.000Z,19.37
2018-11-05T16:25:14.000Z,19.36
2018-11-05T16:35:14.000Z,19.35
2018-11-05T16:45:14.000Z,19.38
2018-11-05T16:55:15.000Z,19.37
2018-11-05T17:05:14.000Z,19.38
2018-11-05T17:15:14.000Z,19.35
2018-11-05T17:25:14.000Z,19.34
2018-11-05T17:35:14.000Z,19.3
2018-11-05T17:45:15.000Z,19.36
2018-11-05T17:55:15.000Z,19.28
2018-11-05T18:05:15.000Z,19.23
2018-11-05T18:15:15.000Z,19.19
2018-11-05T18:25:15.000Z,19.16
2018-11-05T18:35:15.000Z,19.14
2018-11-05T18:45:17.000Z,19.17
2018-11-05T18:55:15.000Z,19.23
2018-11-05T19:05:15.000Z,19.2
2018-11-05T19:15:19.000Z,19.22
2018-11-05T19:25:15.000Z,19.21
2018-11-05T19:35:15.000Z,19.21
2018-11-05T19:55:15.000Z,19.22
2018-11-05T20:05:16.000Z,19.25
2018-11-05T20:15:15.000Z,19.48
2018-11-05T20:25:15.000Z,19.63
2018-11-05T20:35:15.000Z,19.77
2018-11-05T20:45:15.000Z,19.9
2018-11-05T20:55:15.000Z,19.98
2018-11-05T21:05:15.000Z,20.12
2018-11-05T21:15:15.000Z,20.35
2018-11-05T21:25:15.000Z,20.35
2018-11-05T21:35:16.000Z,20.45
2018-11-05T21:45:15.000Z,20.53
2018-11-05T22:05:15.000Z,20.57
2018-11-05T22:15:15.000Z,20.65
2018-11-05T22:25:15.000Z,20.72
2018-11-05T22:35:15.000Z,20.76
2018-11-05T22:45:15.000Z,20.82
2018-11-05T22:55:15.000Z,20.83
2018-11-05T23:05:15.000Z,20.86
2018-11-05T23:15:19.000Z,20.86
2018-11-05T23:25:15.000Z,20.84
2018-11-05T23:35:17.000Z,20.88
2018-11-05T23:45:15.000Z,20.9
2018-11-05T23:55:15.000Z,20.9
